createdAt,value
2023-03-25T00:06:12.183Z,46.83
2023-03-25T00:13:13.770Z,30.63
2023-03-25T00:20:15.455Z,69.63
2023-03-25T00:27:19.840Z,2.90
2023-03-25T00:34:21.375Z,2.60
2023-03-25T00:41:27.352Z,2.45
2023-03-25T00:48:29.694Z,3.10
2023-03-25T00:55:31.578Z,2.60
2023-03-25T01:02:34.077Z,2.85
2023-03-25T01:09:36.149Z,2.83
2023-03-25T01:16:37.667Z,2.10
2023-03-25T01:23:39.264Z,2.60
2023-03-25T01:30:40.979Z,2.20
2023-03-25T01:37:44.492Z,2.58
2023-03-25T01:44:45.994Z,2.13
2023-03-25T01:51:47.518Z,2.40
2023-03-25T01:58:49.627Z,2.33
2023-03-25T02:06:06.652Z,2.47
2023-03-25T02:13:08.165Z,2.40
2023-03-25T02:20:44.434Z,2.20
2023-03-25T02:27:55.003Z,1.98
2023-03-25T02:35:23.249Z,2.35
2023-03-25T02:42:34.677Z,2.60
2023-03-25T02:49:41.992Z,2.40
2023-03-25T02:56:44.638Z,2.30
2023-03-25T03:03:46.356Z,2.30
2023-03-25T03:11:06.788Z,2.65
2023-03-25T03:18:38.119Z,2.35
2023-03-25T03:25:51.132Z,2.70
2023-03-25T03:32:56.042Z,2.35
2023-03-25T03:39:57.587Z,2.88
2023-03-25T03:47:21.260Z,2.03
2023-03-25T03:54:25.209Z,2.55
2023-03-25T04:01:35.361Z,2.33
2023-03-25T04:08:58.680Z,2.30
2023-03-25T04:16:00.528Z,2.20
2023-03-25T04:23:04.603Z,2.47
2023-03-25T04:30:07.216Z,2.25
2023-03-25T04:37:08.823Z,2.30
2023-03-25T04:44:10.987Z,2.40
2023-03-25T04:51:12.775Z,2.47
2023-03-25T04:58:15.792Z,1.90
2023-03-25T05:05:18.685Z,2.10
2023-03-25T05:12:20.480Z,2.40
2023-03-25T05:19:22.004Z,2.10
2023-03-25T05:26:24.298Z,1.95
2023-03-25T05:33:26.016Z,2.63
2023-03-25T05:40:27.637Z,2.10
2023-03-25T05:47:29.197Z,4.25
2023-03-25T05:54:30.812Z,1.60
2023-03-25T06:01:34.140Z,1.83
2023-03-25T06:08:35.961Z,1.50
2023-03-25T06:15:40.530Z,1.55
2023-03-25T06:22:44.106Z,1.63
2023-03-25T06:29:45.845Z,1.50
2023-03-25T06:36:50.053Z,1.77
2023-03-25T06:43:51.763Z,1.45
2023-03-25T06:50:57.298Z,1.63
2023-03-25T06:57:58.819Z,1.92
2023-03-25T07:05:00.643Z,2.00
2023-03-25T07:12:02.433Z,1.90
2023-03-25T07:19:04.088Z,1.50
2023-03-25T07:26:05.901Z,1.77
2023-03-25T07:33:08.147Z,1.80
2023-03-25T07:40:10.339Z,2.00
2023-03-25T07:47:11.950Z,1.40
2023-03-25T07:54:13.533Z,1.80
2023-03-25T08:01:15.595Z,1.92
2023-03-25T08:08:17.216Z,1.65
2023-03-25T08:15:18.908Z,1.40
2023-03-25T08:22:20.584Z,2.60
2023-03-25T08:29:22.124Z,1.95
2023-03-25T08:36:23.972Z,1.70
2023-03-25T08:43:26.090Z,1.80
2023-03-25T08:50:28.217Z,1.80
2023-03-25T08:57:29.843Z,2.20
2023-03-25T09:04:31.517Z,2.30
2023-03-25T09:11:36.812Z,1.73
2023-03-25T09:18:38.780Z,1.70
2023-03-25T09:25:40.339Z,1.65
2023-03-25T09:32:42.034Z,3.47
2023-03-25T09:39:43.662Z,2.03
2023-03-25T09:46:45.300Z,1.63
2023-03-25T09:53:53.593Z,2.00
2023-03-25T10:01:27.693Z,1.60
2023-03-25T10:09:04.724Z,1.40
2023-03-25T10:16:14.122Z,2.03
2023-03-25T10:23:30.751Z,1.70
2023-03-25T10:30:38.699Z,1.83
2023-03-25T10:37:42.010Z,1.67
2023-03-25T10:44:44.616Z,1.67
2023-03-25T10:51:46.669Z,1.50
2023-03-25T10:58:51.720Z,1.30
2023-03-25T11:05:54.139Z,4.13
2023-03-25T11:12:58.298Z,1.70
2023-03-25T11:20:02.055Z,1.40
2023-03-25T11:27:04.025Z,1.58
2023-03-25T11:34:12.780Z,1.55
2023-03-25T11:41:14.598Z,1.70
2023-03-25T11:48:18.089Z,0.98
2023-03-25T11:55:46.420Z,1.60
2023-03-25T12:02:48.167Z,1.58
2023-03-25T12:10:05.357Z,1.65
2023-03-25T12:17:47.948Z,1.80
2023-03-25T12:25:12.110Z,1.95
2023-03-25T12:32:35.586Z,1.40
2023-03-25T12:40:18.911Z,1.13
2023-03-25T12:47:42.087Z,1.55
2023-03-25T12:55:09.991Z,3.85
2023-03-25T13:02:39.206Z,1.55
2023-03-25T13:09:40.747Z,1.43
2023-03-25T13:16:42.588Z,1.35
2023-03-25T13:23:45.455Z,2.10
2023-03-25T13:30:47.054Z,1.40
2023-03-25T13:37:50.238Z,1.65
2023-03-25T13:44:52.101Z,1.70
2023-03-25T13:51:53.697Z,1.58
2023-03-25T13:59:28.334Z,1.67
2023-03-25T14:06:59.597Z,1.77
2023-03-25T14:14:04.523Z,1.83
2023-03-25T14:21:27.134Z,1.77
2023-03-25T14:28:37.552Z,1.60
2023-03-25T14:35:39.213Z,1.90
2023-03-25T14:42:42.704Z,1.90
2023-03-25T14:49:51.121Z,2.03
2023-03-25T14:56:56.880Z,1.67
2023-03-25T15:04:13.520Z,2.15
2023-03-25T15:11:16.933Z,1.60
2023-03-25T15:18:37.031Z,1.85
2023-03-25T15:33:08.938Z,1.60
2023-03-25T15:40:34.872Z,1.90
2023-03-25T15:47:50.642Z,2.08
2023-03-25T15:54:56.866Z,2.25
2023-03-25T16:01:58.505Z,2.03
2023-03-25T16:09:00.702Z,1.90
2023-03-25T16:16:02.355Z,2.03
2023-03-25T16:23:04.821Z,2.10
2023-03-25T16:30:22.775Z,1.65
2023-03-25T16:37:25.305Z,1.90
2023-03-25T16:44:26.951Z,2.20
2023-03-25T16:51:29.359Z,2.33
2023-03-25T16:58:31.150Z,2.92
2023-03-25T17:05:33.235Z,4.07
2023-03-25T17:12:34.838Z,2.03
2023-03-25T17:19:36.385Z,2.45
2023-03-25T17:27:11.715Z,2.90
2023-03-25T17:34:24.216Z,3.13
2023-03-25T17:41:30.656Z,3.33
2023-03-25T17:48:32.252Z,3.10
2023-03-25T17:55:33.802Z,2.28
2023-03-25T18:02:35.651Z,2.50
2023-03-25T18:09:37.284Z,2.75
2023-03-25T18:16:39.030Z,2.95
2023-03-25T18:23:41.146Z,2.65
2023-03-25T18:30:49.312Z,3.13
2023-03-25T18:37:51.269Z,3.20
2023-03-25T18:44:52.894Z,3.33
2023-03-25T18:51:54.533Z,3.20
2023-03-25T18:58:56.394Z,3.13
2023-03-25T19:05:58.588Z,2.50
2023-03-25T19:13:00.477Z,2.30
2023-03-25T19:20:04.083Z,2.78
2023-03-25T19:27:05.796Z,2.35
2023-03-25T19:34:08.209Z,2.30
2023-03-25T19:41:11.490Z,2.17
2023-03-25T19:48:13.149Z,2.10
2023-03-25T19:55:15.412Z,1.92
2023-03-25T20:02:17.299Z,2.25
2023-03-25T20:09:18.973Z,2.67
2023-03-25T20:16:22.067Z,1.90
2023-03-25T20:23:23.764Z,15.07
2023-03-25T20:30:25.541Z,2.08
2023-03-25T20:37:27.164Z,2.42
2023-03-25T20:44:28.870Z,2.20
2023-03-25T20:51:30.604Z,2.22
2023-03-25T20:58:32.226Z,3.00
2023-03-25T21:05:33.743Z,1.90
2023-03-25T21:12:43.610Z,5.13
2023-03-25T21:19:46.429Z,1.98
2023-03-25T21:26:49.108Z,2.75
2023-03-25T21:33:52.519Z,4.03
2023-03-25T21:40:57.777Z,6.55
2023-03-25T21:48:02.344Z,30.27
2023-03-25T21:55:05.367Z,82.47
2023-03-25T22:02:08.533Z,17.10
2023-03-25T22:09:10.155Z,26.30
2023-03-25T22:16:12.669Z,32.40
2023-03-25T22:23:14.284Z,39.25
2023-03-25T22:30:16.135Z,52.95
2023-03-25T22:37:17.706Z,67.63
2023-03-25T22:44:19.450Z,70.50
2023-03-25T22:51:21.149Z,2.78
2023-03-25T22:58:23.973Z,2.45
2023-03-25T23:05:25.511Z,2.58
2023-03-25T23:12:27.134Z,2.70
2023-03-25T23:19:28.666Z,2.15
2023-03-25T23:26:38.767Z,2.00
2023-03-25T23:33:40.824Z,2.05
2023-03-25T23:40:42.347Z,1.98
2023-03-25T23:47:43.902Z,2.28
2023-03-25T23:54:47.284Z,2.05
